sensor_id;sensor_type;location;lat;lon;timestamp;P1;durP1;ratioP1;P2;durP2;ratioP2
20415;SDS011;10367;52.202;5.996;2023-08-06T00:01:04;25.90;;;23.43;;
20415;SDS011;10367;52.202;5.996;2023-08-06T00:03:33;30.67;;;25.17;;
20415;SDS011;10367;52.202;5.996;2023-08-06T00:06:04;25.07;;;22.50;;
20415;SDS011;10367;52.202;5.996;2023-08-06T00:08:33;25.93;;;22.80;;
20415;SDS011;10367;52.202;5.996;2023-08-06T00:11:03;25.40;;;22.10;;
20415;SDS011;10367;52.202;5.996;2023-08-06T00:13:32;23.23;;;20.83;;
20415;SDS011;10367;52.202;5.996;2023-08-06T00:16:10;26.07;;;23.37;;
20415;SDS011;10367;52.202;5.996;2023-08-06T00:18:39;27.43;;;23.60;;
20415;SDS011;10367;52.202;5.996;2023-08-06T00:21:08;27.10;;;24.20;;
20415;SDS011;10367;52.202;5.996;2023-08-06T00:23:40;27.93;;;23.10;;
20415;SDS011;10367;52.202;5.996;2023-08-06T00:26:10;28.23;;;23.97;;
20415;SDS011;10367;52.202;5.996;2023-08-06T00:28:38;25.23;;;22.60;;
20415;SDS011;10367;52.202;5.996;2023-08-06T00:31:07;25.60;;;23.13;;
20415;SDS011;10367;52.202;5.996;2023-08-06T00:33:36;24.63;;;22.00;;
20415;SDS011;10367;52.202;5.996;2023-08-06T00:36:05;31.87;;;27.13;;
20415;SDS011;10367;52.202;5.996;2023-08-06T00:38:34;25.27;;;22.67;;
20415;SDS011;10367;52.202;5.996;2023-08-06T00:41:04;26.93;;;24.03;;
20415;SDS011;10367;52.202;5.996;2023-08-06T00:43:33;25.10;;;22.77;;
20415;SDS011;10367;52.202;5.996;2023-08-06T00:46:01;27.07;;;24.17;;
20415;SDS011;10367;52.202;5.996;2023-08-06T00:48:30;26.47;;;23.67;;
20415;SDS011;10367;52.202;5.996;2023-08-06T00:50:59;28.30;;;23.67;;
20415;SDS011;10367;52.202;5.996;2023-08-06T00:53:29;29.13;;;24.67;;
20415;SDS011;10367;52.202;5.996;2023-08-06T00:55:58;34.40;;;26.30;;
20415;SDS011;10367;52.202;5.996;2023-08-06T00:58:28;25.63;;;22.87;;
20415;SDS011;10367;52.202;5.996;2023-08-06T01:00:57;34.00;;;25.73;;
20415;SDS011;10367;52.202;5.996;2023-08-06T01:03:26;23.97;;;21.63;;
20415;SDS011;10367;52.202;5.996;2023-08-06T01:05:55;32.17;;;25.63;;
20415;SDS011;10367;52.202;5.996;2023-08-06T01:08:28;28.20;;;22.93;;
20415;SDS011;10367;52.202;5.996;2023-08-06T01:11:08;27.20;;;23.33;;
20415;SDS011;10367;52.202;5.996;2023-08-06T01:13:50;25.90;;;23.20;;
20415;SDS011;10367;52.202;5.996;2023-08-06T01:16:22;24.90;;;22.53;;
20415;SDS011;10367;52.202;5.996;2023-08-06T01:18:53;30.23;;;25.27;;
20415;SDS011;10367;52.202;5.996;2023-08-06T01:21:23;27.77;;;23.47;;
20415;SDS011;10367;52.202;5.996;2023-08-06T01:23:52;28.63;;;24.33;;
20415;SDS011;10367;52.202;5.996;2023-08-06T01:26:26;24.87;;;22.33;;
20415;SDS011;10367;52.202;5.996;2023-08-06T01:29:03;29.03;;;25.70;;
20415;SDS011;10367;52.202;5.996;2023-08-06T01:31:38;34.27;;;25.20;;
20415;SDS011;10367;52.202;5.996;2023-08-06T01:34:15;25.97;;;23.37;;
20415;SDS011;10367;52.202;5.996;2023-08-06T01:36:50;29.23;;;24.03;;
20415;SDS011;10367;52.202;5.996;2023-08-06T01:39:20;25.97;;;23.27;;
20415;SDS011;10367;52.202;5.996;2023-08-06T01:41:49;34.97;;;24.90;;
20415;SDS011;10367;52.202;5.996;2023-08-06T01:44:18;25.77;;;23.17;;
20415;SDS011;10367;52.202;5.996;2023-08-06T01:46:47;28.07;;;23.43;;
20415;SDS011;10367;52.202;5.996;2023-08-06T01:49:16;27.37;;;24.33;;
20415;SDS011;10367;52.202;5.996;2023-08-06T01:51:44;32.07;;;26.40;;
20415;SDS011;10367;52.202;5.996;2023-08-06T01:54:15;23.03;;;20.63;;
20415;SDS011;10367;52.202;5.996;2023-08-06T01:56:43;26.73;;;23.20;;
20415;SDS011;10367;52.202;5.996;2023-08-06T01:59:12;26.10;;;23.30;;
20415;SDS011;10367;52.202;5.996;2023-08-06T02:01:41;28.63;;;24.60;;
20415;SDS011;10367;52.202;5.996;2023-08-06T02:04:09;26.83;;;24.03;;
20415;SDS011;10367;52.202;5.996;2023-08-06T02:06:48;24.17;;;21.83;;
20415;SDS011;10367;52.202;5.996;2023-08-06T02:09:19;27.93;;;22.83;;
20415;SDS011;10367;52.202;5.996;2023-08-06T02:11:47;27.60;;;24.53;;
20415;SDS011;10367;52.202;5.996;2023-08-06T02:14:17;25.27;;;22.70;;
20415;SDS011;10367;52.202;5.996;2023-08-06T02:16:46;27.63;;;23.50;;
20415;SDS011;10367;52.202;5.996;2023-08-06T02:19:14;26.00;;;23.60;;
20415;SDS011;10367;52.202;5.996;2023-08-06T02:21:43;26.87;;;23.93;;
20415;SDS011;10367;52.202;5.996;2023-08-06T02:24:12;25.93;;;23.33;;
20415;SDS011;10367;52.202;5.996;2023-08-06T02:26:42;25.27;;;22.90;;
20415;SDS011;10367;52.202;5.996;2023-08-06T02:29:11;29.00;;;24.23;;
20415;SDS011;10367;52.202;5.996;2023-08-06T02:31:40;26.33;;;23.53;;
20415;SDS011;10367;52.202;5.996;2023-08-06T02:34:08;30.70;;;23.90;;
20415;SDS011;10367;52.202;5.996;2023-08-06T02:36:42;29.33;;;22.67;;
20415;SDS011;10367;52.202;5.996;2023-08-06T02:39:16;29.83;;;24.07;;
20415;SDS011;10367;52.202;5.996;2023-08-06T02:41:51;25.90;;;23.30;;
20415;SDS011;10367;52.202;5.996;2023-08-06T02:44:21;25.57;;;23.03;;
20415;SDS011;10367;52.202;5.996;2023-08-06T02:46:49;38.07;;;26.40;;
20415;SDS011;10367;52.202;5.996;2023-08-06T02:49:18;28.37;;;24.07;;
20415;SDS011;10367;52.202;5.996;2023-08-06T02:51:47;29.40;;;23.10;;
20415;SDS011;10367;52.202;5.996;2023-08-06T02:54:16;24.73;;;22.17;;
20415;SDS011;10367;52.202;5.996;2023-08-06T02:56:45;26.77;;;23.93;;
20415;SDS011;10367;52.202;5.996;2023-08-06T02:59:15;32.47;;;25.20;;
20415;SDS011;10367;52.202;5.996;2023-08-06T03:01:44;31.53;;;26.27;;
20415;SDS011;10367;52.202;5.996;2023-08-06T03:04:13;26.10;;;22.30;;
20415;SDS011;10367;52.202;5.996;2023-08-06T03:06:42;27.53;;;24.70;;
20415;SDS011;10367;52.202;5.996;2023-08-06T03:09:10;29.50;;;25.20;;
20415;SDS011;10367;52.202;5.996;2023-08-06T03:11:39;28.17;;;24.87;;
20415;SDS011;10367;52.202;5.996;2023-08-06T03:14:08;30.83;;;23.00;;
20415;SDS011;10367;52.202;5.996;2023-08-06T03:16:38;25.90;;;23.13;;
20415;SDS011;10367;52.202;5.996;2023-08-06T03:19:07;33.57;;;24.97;;
20415;SDS011;10367;52.202;5.996;2023-08-06T03:21:35;31.70;;;26.43;;
20415;SDS011;10367;52.202;5.996;2023-08-06T03:24:04;34.33;;;27.23;;
20415;SDS011;10367;52.202;5.996;2023-08-06T03:26:33;30.10;;;25.70;;
20415;SDS011;10367;52.202;5.996;2023-08-06T03:29:01;33.00;;;26.33;;
20415;SDS011;10367;52.202;5.996;2023-08-06T03:31:30;26.50;;;23.73;;
20415;SDS011;10367;52.202;5.996;2023-08-06T03:34:01;32.33;;;25.20;;
20415;SDS011;10367;52.202;5.996;2023-08-06T03:36:30;31.83;;;23.87;;
20415;SDS011;10367;52.202;5.996;2023-08-06T03:38:58;28.50;;;25.30;;
20415;SDS011;10367;52.202;5.996;2023-08-06T03:41:27;33.20;;;25.10;;
20415;SDS011;10367;52.202;5.996;2023-08-06T03:43:56;31.40;;;25.77;;
20415;SDS011;10367;52.202;5.996;2023-08-06T03:46:24;34.13;;;24.53;;
20415;SDS011;10367;52.202;5.996;2023-08-06T03:48:53;26.90;;;24.00;;
20415;SDS011;10367;52.202;5.996;2023-08-06T03:51:25;26.57;;;23.73;;
20415;SDS011;10367;52.202;5.996;2023-08-06T03:53:54;36.57;;;26.93;;
20415;SDS011;10367;52.202;5.996;2023-08-06T03:56:23;32.50;;;25.57;;
20415;SDS011;10367;52.202;5.996;2023-08-06T03:58:52;25.60;;;22.70;;
20415;SDS011;10367;52.202;5.996;2023-08-06T04:01:20;30.10;;;25.80;;
20415;SDS011;10367;52.202;5.996;2023-08-06T04:03:49;27.03;;;23.30;;
20415;SDS011;10367;52.202;5.996;2023-08-06T04:06:18;32.83;;;24.13;;
20415;SDS011;10367;52.202;5.996;2023-08-06T04:08:48;31.93;;;27.27;;
20415;SDS011;10367;52.202;5.996;2023-08-06T04:11:17;35.00;;;25.93;;
20415;SDS011;10367;52.202;5.996;2023-08-06T04:13:45;32.93;;;26.70;;
20415;SDS011;10367;52.202;5.996;2023-08-06T04:16:14;31.07;;;25.70;;
20415;SDS011;10367;52.202;5.996;2023-08-06T04:18:43;33.03;;;26.07;;
20415;SDS011;10367;52.202;5.996;2023-08-06T04:21:12;33.57;;;25.03;;
20415;SDS011;10367;52.202;5.996;2023-08-06T04:23:44;27.33;;;24.33;;
20415;SDS011;10367;52.202;5.996;2023-08-06T04:26:14;35.23;;;25.77;;
20415;SDS011;10367;52.202;5.996;2023-08-06T04:28:43;31.27;;;25.17;;
20415;SDS011;10367;52.202;5.996;2023-08-06T04:31:12;33.47;;;27.33;;
20415;SDS011;10367;52.202;5.996;2023-08-06T04:33:40;32.33;;;23.77;;
20415;SDS011;10367;52.202;5.996;2023-08-06T04:36:09;36.77;;;26.67;;
20415;SDS011;10367;52.202;5.996;2023-08-06T04:38:38;33.73;;;26.10;;
20415;SDS011;10367;52.202;5.996;2023-08-06T04:41:08;30.50;;;25.37;;
20415;SDS011;10367;52.202;5.996;2023-08-06T04:43:38;33.03;;;25.63;;
20415;SDS011;10367;52.202;5.996;2023-08-06T04:46:07;29.80;;;25.67;;
20415;SDS011;10367;52.202;5.996;2023-08-06T04:48:35;31.30;;;25.10;;
20415;SDS011;10367;52.202;5.996;2023-08-06T04:51:04;31.70;;;25.50;;
20415;SDS011;10367;52.202;5.996;2023-08-06T04:53:33;27.13;;;23.97;;
20415;SDS011;10367;52.202;5.996;2023-08-06T04:56:02;30.57;;;25.30;;
20415;SDS011;10367;52.202;5.996;2023-08-06T04:58:30;27.70;;;24.37;;
20415;SDS011;10367;52.202;5.996;2023-08-06T05:01:00;29.70;;;24.93;;
20415;SDS011;10367;52.202;5.996;2023-08-06T05:03:29;29.17;;;25.37;;
20415;SDS011;10367;52.202;5.996;2023-08-06T05:05:58;30.77;;;25.23;;
20415;SDS011;10367;52.202;5.996;2023-08-06T05:08:26;27.17;;;23.53;;
20415;SDS011;10367;52.202;5.996;2023-08-06T05:10:55;25.23;;;22.60;;
20415;SDS011;10367;52.202;5.996;2023-08-06T05:13:24;27.93;;;24.13;;
20415;SDS011;10367;52.202;5.996;2023-08-06T05:15:53;29.60;;;24.70;;
20415;SDS011;10367;52.202;5.996;2023-08-06T05:18:23;27.30;;;24.10;;
20415;SDS011;10367;52.202;5.996;2023-08-06T05:20:52;27.53;;;24.53;;
20415;SDS011;10367;52.202;5.996;2023-08-06T05:23:21;33.87;;;26.63;;
20415;SDS011;10367;52.202;5.996;2023-08-06T05:25:49;28.40;;;24.40;;
20415;SDS011;10367;52.202;5.996;2023-08-06T05:28:18;30.37;;;23.10;;
20415;SDS011;10367;52.202;5.996;2023-08-06T05:30:47;25.67;;;22.87;;
20415;SDS011;10367;52.202;5.996;2023-08-06T05:33:16;24.63;;;22.03;;
20415;SDS011;10367;52.202;5.996;2023-08-06T05:35:46;29.70;;;23.23;;
20415;SDS011;10367;52.202;5.996;2023-08-06T05:38:14;28.47;;;24.60;;
20415;SDS011;10367;52.202;5.996;2023-08-06T05:40:44;29.20;;;25.30;;
20415;SDS011;10367;52.202;5.996;2023-08-06T05:43:13;28.70;;;25.23;;
20415;SDS011;10367;52.202;5.996;2023-08-06T05:45:43;32.50;;;26.20;;
20415;SDS011;10367;52.202;5.996;2023-08-06T05:48:13;30.67;;;23.23;;
20415;SDS011;10367;52.202;5.996;2023-08-06T05:50:42;25.97;;;23.40;;
20415;SDS011;10367;52.202;5.996;2023-08-06T05:53:12;26.20;;;23.33;;
20415;SDS011;10367;52.202;5.996;2023-08-06T05:55:41;31.13;;;26.10;;
20415;SDS011;10367;52.202;5.996;2023-08-06T05:58:09;32.07;;;26.60;;
20415;SDS011;10367;52.202;5.996;2023-08-06T06:00:38;31.17;;;25.50;;
20415;SDS011;10367;52.202;5.996;2023-08-06T06:03:07;35.30;;;27.70;;
20415;SDS011;10367;52.202;5.996;2023-08-06T06:05:37;29.47;;;26.37;;
20415;SDS011;10367;52.202;5.996;2023-08-06T06:08:06;29.27;;;25.23;;
20415;SDS011;10367;52.202;5.996;2023-08-06T06:10:36;27.10;;;24.23;;
20415;SDS011;10367;52.202;5.996;2023-08-06T06:13:05;36.37;;;25.83;;
20415;SDS011;10367;52.202;5.996;2023-08-06T06:15:36;31.57;;;25.63;;
20415;SDS011;10367;52.202;5.996;2023-08-06T06:18:05;30.60;;;26.27;;
20415;SDS011;10367;52.202;5.996;2023-08-06T06:20:34;27.40;;;24.43;;
20415;SDS011;10367;52.202;5.996;2023-08-06T06:23:08;26.90;;;24.17;;
20415;SDS011;10367;52.202;5.996;2023-08-06T06:25:43;27.97;;;24.30;;
20415;SDS011;10367;52.202;5.996;2023-08-06T06:28:14;27.60;;;24.80;;
20415;SDS011;10367;52.202;5.996;2023-08-06T06:30:43;30.33;;;26.27;;
20415;SDS011;10367;52.202;5.996;2023-08-06T06:33:12;27.90;;;25.20;;
20415;SDS011;10367;52.202;5.996;2023-08-06T06:35:41;30.73;;;26.50;;
20415;SDS011;10367;52.202;5.996;2023-08-06T06:38:09;29.27;;;26.20;;
20415;SDS011;10367;52.202;5.996;2023-08-06T06:40:38;27.57;;;24.10;;
20415;SDS011;10367;52.202;5.996;2023-08-06T06:43:08;28.33;;;25.30;;
20415;SDS011;10367;52.202;5.996;2023-08-06T06:45:37;28.37;;;25.43;;
20415;SDS011;10367;52.202;5.996;2023-08-06T06:48:06;30.57;;;27.30;;
20415;SDS011;10367;52.202;5.996;2023-08-06T06:50:35;26.33;;;23.87;;
20415;SDS011;10367;52.202;5.996;2023-08-06T06:53:08;28.57;;;25.63;;
20415;SDS011;10367;52.202;5.996;2023-08-06T06:55:40;26.90;;;24.37;;
20415;SDS011;10367;52.202;5.996;2023-08-06T06:58:10;28.50;;;25.70;;
20415;SDS011;10367;52.202;5.996;2023-08-06T07:00:39;27.70;;;24.90;;
20415;SDS011;10367;52.202;5.996;2023-08-06T07:03:08;29.10;;;25.97;;
20415;SDS011;10367;52.202;5.996;2023-08-06T07:05:36;26.37;;;23.80;;
20415;SDS011;10367;52.202;5.996;2023-08-06T07:08:05;34.07;;;26.93;;
20415;SDS011;10367;52.202;5.996;2023-08-06T07:10:34;29.90;;;26.73;;
20415;SDS011;10367;52.202;5.996;2023-08-06T07:13:09;32.23;;;28.03;;
20415;SDS011;10367;52.202;5.996;2023-08-06T07:15:39;28.63;;;25.60;;
20415;SDS011;10367;52.202;5.996;2023-08-06T07:18:13;31.20;;;26.43;;
20415;SDS011;10367;52.202;5.996;2023-08-06T07:20:47;29.50;;;25.40;;
20415;SDS011;10367;52.202;5.996;2023-08-06T07:23:16;25.30;;;22.83;;
20415;SDS011;10367;52.202;5.996;2023-08-06T07:25:49;30.27;;;27.30;;
20415;SDS011;10367;52.202;5.996;2023-08-06T07:28:20;26.77;;;24.40;;
20415;SDS011;10367;52.202;5.996;2023-08-06T07:30:49;25.97;;;23.57;;
20415;SDS011;10367;52.202;5.996;2023-08-06T07:33:18;26.77;;;24.00;;
20415;SDS011;10367;52.202;5.996;2023-08-06T07:35:47;27.93;;;24.90;;
20415;SDS011;10367;52.202;5.996;2023-08-06T07:38:16;27.43;;;24.93;;
20415;SDS011;10367;52.202;5.996;2023-08-06T07:40:45;28.10;;;24.90;;
20415;SDS011;10367;52.202;5.996;2023-08-06T07:43:13;27.30;;;24.83;;
20415;SDS011;10367;52.202;5.996;2023-08-06T07:45:44;26.70;;;24.17;;
20415;SDS011;10367;52.202;5.996;2023-08-06T07:48:12;26.10;;;23.80;;
20415;SDS011;10367;52.202;5.996;2023-08-06T07:50:41;29.20;;;26.57;;
20415;SDS011;10367;52.202;5.996;2023-08-06T07:53:17;27.17;;;24.77;;
20415;SDS011;10367;52.202;5.996;2023-08-06T07:55:47;27.33;;;24.87;;
20415;SDS011;10367;52.202;5.996;2023-08-06T07:58:17;27.23;;;24.70;;
20415;SDS011;10367;52.202;5.996;2023-08-06T08:00:47;27.37;;;24.83;;
20415;SDS011;10367;52.202;5.996;2023-08-06T08:03:16;27.20;;;24.80;;
20415;SDS011;10367;52.202;5.996;2023-08-06T08:05:47;27.60;;;25.20;;
20415;SDS011;10367;52.202;5.996;2023-08-06T08:08:15;26.27;;;24.07;;
20415;SDS011;10367;52.202;5.996;2023-08-06T08:10:44;29.23;;;26.50;;
20415;SDS011;10367;52.202;5.996;2023-08-06T08:13:13;28.00;;;25.50;;
20415;SDS011;10367;52.202;5.996;2023-08-06T08:15:41;28.87;;;26.37;;
20415;SDS011;10367;52.202;5.996;2023-08-06T08:18:11;27.93;;;25.37;;
20415;SDS011;10367;52.202;5.996;2023-08-06T08:20:40;25.87;;;23.80;;
20415;SDS011;10367;52.202;5.996;2023-08-06T08:23:09;30.13;;;27.20;;
20415;SDS011;10367;52.202;5.996;2023-08-06T08:25:38;26.67;;;24.47;;
20415;SDS011;10367;52.202;5.996;2023-08-06T08:28:06;29.93;;;26.80;;
20415;SDS011;10367;52.202;5.996;2023-08-06T08:30:35;27.73;;;25.33;;
20415;SDS011;10367;52.202;5.996;2023-08-06T08:33:04;31.57;;;28.43;;
20415;SDS011;10367;52.202;5.996;2023-08-06T08:35:36;27.33;;;25.03;;
20415;SDS011;10367;52.202;5.996;2023-08-06T08:38:05;30.30;;;27.20;;
20415;SDS011;10367;52.202;5.996;2023-08-06T08:40:33;27.27;;;24.97;;
20415;SDS011;10367;52.202;5.996;2023-08-06T08:43:10;32.27;;;29.03;;
20415;SDS011;10367;52.202;5.996;2023-08-06T08:45:40;27.40;;;24.83;;
20415;SDS011;10367;52.202;5.996;2023-08-06T08:48:12;28.20;;;25.67;;
20415;SDS011;10367;52.202;5.996;2023-08-06T08:50:43;26.30;;;24.30;;
20415;SDS011;10367;52.202;5.996;2023-08-06T08:53:13;28.37;;;25.77;;
20415;SDS011;10367;52.202;5.996;2023-08-06T08:55:43;28.63;;;26.10;;
20415;SDS011;10367;52.202;5.996;2023-08-06T08:58:15;27.87;;;25.43;;
20415;SDS011;10367;52.202;5.996;2023-08-06T09:00:45;25.77;;;23.83;;
20415;SDS011;10367;52.202;5.996;2023-08-06T09:03:15;29.03;;;26.43;;
20415;SDS011;10367;52.202;5.996;2023-08-06T09:05:47;26.63;;;24.53;;
20415;SDS011;10367;52.202;5.996;2023-08-06T09:08:21;27.73;;;25.33;;
20415;SDS011;10367;52.202;5.996;2023-08-06T09:10:55;25.40;;;23.60;;
20415;SDS011;10367;52.202;5.996;2023-08-06T09:13:25;26.43;;;24.30;;
20415;SDS011;10367;52.202;5.996;2023-08-06T09:15:54;28.97;;;26.43;;
20415;SDS011;10367;52.202;5.996;2023-08-06T09:18:26;27.10;;;24.90;;
20415;SDS011;10367;52.202;5.996;2023-08-06T09:20:57;28.40;;;26.00;;
20415;SDS011;10367;52.202;5.996;2023-08-06T09:23:29;29.33;;;26.63;;
20415;SDS011;10367;52.202;5.996;2023-08-06T09:26:00;28.90;;;26.30;;
20415;SDS011;10367;52.202;5.996;2023-08-06T09:28:36;35.20;;;28.77;;
20415;SDS011;10367;52.202;5.996;2023-08-06T09:31:08;35.77;;;29.43;;
20415;SDS011;10367;52.202;5.996;2023-08-06T09:33:38;31.20;;;28.23;;
20415;SDS011;10367;52.202;5.996;2023-08-06T09:36:11;32.17;;;28.80;;
20415;SDS011;10367;52.202;5.996;2023-08-06T09:38:40;30.90;;;28.00;;
20415;SDS011;10367;52.202;5.996;2023-08-06T09:41:09;36.97;;;32.77;;
20415;SDS011;10367;52.202;5.996;2023-08-06T09:43:41;31.67;;;28.57;;
20415;SDS011;10367;52.202;5.996;2023-08-06T09:46:10;34.60;;;31.00;;
20415;SDS011;10367;52.202;5.996;2023-08-06T09:48:44;31.67;;;28.43;;
20415;SDS011;10367;52.202;5.996;2023-08-06T09:51:14;32.07;;;28.77;;
20415;SDS011;10367;52.202;5.996;2023-08-06T09:53:45;31.83;;;28.77;;
20415;SDS011;10367;52.202;5.996;2023-08-06T09:56:17;31.53;;;28.50;;
20415;SDS011;10367;52.202;5.996;2023-08-06T09:58:47;30.73;;;27.83;;
20415;SDS011;10367;52.202;5.996;2023-08-06T10:01:17;29.60;;;26.90;;
20415;SDS011;10367;52.202;5.996;2023-08-06T10:03:47;29.83;;;27.17;;
20415;SDS011;10367;52.202;5.996;2023-08-06T10:06:20;30.13;;;27.13;;
20415;SDS011;10367;52.202;5.996;2023-08-06T10:08:50;30.07;;;27.20;;
20415;SDS011;10367;52.202;5.996;2023-08-06T10:11:19;34.67;;;30.50;;
20415;SDS011;10367;52.202;5.996;2023-08-06T10:13:52;31.67;;;28.30;;
20415;SDS011;10367;52.202;5.996;2023-08-06T10:16:35;30.63;;;27.93;;
20415;SDS011;10367;52.202;5.996;2023-08-06T10:19:05;30.17;;;27.30;;
20415;SDS011;10367;52.202;5.996;2023-08-06T10:21:39;30.70;;;27.77;;
20415;SDS011;10367;52.202;5.996;2023-08-06T10:24:08;31.10;;;28.27;;
20415;SDS011;10367;52.202;5.996;2023-08-06T10:26:37;30.80;;;28.10;;
20415;SDS011;10367;52.202;5.996;2023-08-06T10:32:04;29.43;;;26.90;;
20415;SDS011;10367;52.202;5.996;2023-08-06T10:34:53;29.63;;;27.03;;
20415;SDS011;10367;52.202;5.996;2023-08-06T10:37:34;27.63;;;25.53;;
20415;SDS011;10367;52.202;5.996;2023-08-06T10:40:06;29.97;;;27.23;;
20415;SDS011;10367;52.202;5.996;2023-08-06T10:42:35;28.07;;;25.67;;
20415;SDS011;10367;52.202;5.996;2023-08-06T10:45:16;27.43;;;25.13;;
20415;SDS011;10367;52.202;5.996;2023-08-06T10:47:46;26.43;;;24.30;;
20415;SDS011;10367;52.202;5.996;2023-08-06T10:50:15;27.37;;;25.17;;
20415;SDS011;10367;52.202;5.996;2023-08-06T10:52:46;26.77;;;24.80;;
20415;SDS011;10367;52.202;5.996;2023-08-06T10:55:28;27.30;;;25.27;;
20415;SDS011;10367;52.202;5.996;2023-08-06T10:57:58;28.37;;;25.90;;
20415;SDS011;10367;52.202;5.996;2023-08-06T11:00:27;28.07;;;25.87;;
20415;SDS011;10367;52.202;5.996;2023-08-06T11:02:56;26.70;;;24.57;;
20415;SDS011;10367;52.202;5.996;2023-08-06T11:05:25;26.67;;;24.67;;
20415;SDS011;10367;52.202;5.996;2023-08-06T11:07:57;26.87;;;25.03;;
20415;SDS011;10367;52.202;5.996;2023-08-06T11:10:26;26.47;;;24.53;;
20415;SDS011;10367;52.202;5.996;2023-08-06T11:13:00;26.80;;;24.97;;
20415;SDS011;10367;52.202;5.996;2023-08-06T11:15:29;26.97;;;24.77;;
20415;SDS011;10367;52.202;5.996;2023-08-06T11:17:59;25.90;;;24.00;;
20415;SDS011;10367;52.202;5.996;2023-08-06T11:20:29;25.87;;;24.00;;
20415;SDS011;10367;52.202;5.996;2023-08-06T11:22:59;26.60;;;24.70;;
20415;SDS011;10367;52.202;5.996;2023-08-06T11:25:29;26.60;;;24.70;;
20415;SDS011;10367;52.202;5.996;2023-08-06T11:27:57;27.90;;;25.63;;
20415;SDS011;10367;52.202;5.996;2023-08-06T11:30:28;26.60;;;24.60;;
20415;SDS011;10367;52.202;5.996;2023-08-06T11:32:57;27.47;;;24.83;;
20415;SDS011;10367;52.202;5.996;2023-08-06T11:35:26;25.03;;;23.23;;
20415;SDS011;10367;52.202;5.996;2023-08-06T11:37:55;26.07;;;24.07;;
20415;SDS011;10367;52.202;5.996;2023-08-06T11:40:25;28.23;;;25.93;;
20415;SDS011;10367;52.202;5.996;2023-08-06T11:42:54;26.03;;;24.10;;
20415;SDS011;10367;52.202;5.996;2023-08-06T11:45:23;24.83;;;23.03;;
20415;SDS011;10367;52.202;5.996;2023-08-06T11:47:55;27.27;;;25.07;;
20415;SDS011;10367;52.202;5.996;2023-08-06T11:50:24;25.10;;;23.23;;
20415;SDS011;10367;52.202;5.996;2023-08-06T11:52:54;25.07;;;23.00;;
20415;SDS011;10367;52.202;5.996;2023-08-06T11:55:26;24.47;;;22.77;;
20415;SDS011;10367;52.202;5.996;2023-08-06T11:57:56;28.67;;;26.30;;
20415;SDS011;10367;52.202;5.996;2023-08-06T12:00:25;28.13;;;25.80;;
20415;SDS011;10367;52.202;5.996;2023-08-06T12:02:54;26.50;;;24.60;;
20415;SDS011;10367;52.202;5.996;2023-08-06T12:05:28;30.47;;;27.67;;
20415;SDS011;10367;52.202;5.996;2023-08-06T12:07:58;28.53;;;26.03;;
20415;SDS011;10367;52.202;5.996;2023-08-06T12:10:30;28.40;;;26.00;;
20415;SDS011;10367;52.202;5.996;2023-08-06T12:13:00;24.63;;;22.83;;
20415;SDS011;10367;52.202;5.996;2023-08-06T12:15:31;24.87;;;23.00;;
20415;SDS011;10367;52.202;5.996;2023-08-06T12:17:59;24.07;;;22.17;;
20415;SDS011;10367;52.202;5.996;2023-08-06T12:20:28;22.53;;;20.83;;
20415;SDS011;10367;52.202;5.996;2023-08-06T12:22:57;21.83;;;20.23;;
20415;SDS011;10367;52.202;5.996;2023-08-06T12:25:27;21.40;;;20.00;;
20415;SDS011;10367;52.202;5.996;2023-08-06T12:27:57;22.60;;;20.60;;
20415;SDS011;10367;52.202;5.996;2023-08-06T12:30:25;22.30;;;20.63;;
20415;SDS011;10367;52.202;5.996;2023-08-06T12:32:57;21.40;;;19.83;;
20415;SDS011;10367;52.202;5.996;2023-08-06T12:35:26;24.60;;;22.47;;
20415;SDS011;10367;52.202;5.996;2023-08-06T12:37:54;21.27;;;19.63;;
20415;SDS011;10367;52.202;5.996;2023-08-06T12:40:24;23.27;;;21.43;;
20415;SDS011;10367;52.202;5.996;2023-08-06T12:43:05;20.77;;;19.37;;
20415;SDS011;10367;52.202;5.996;2023-08-06T12:45:33;21.07;;;19.57;;
20415;SDS011;10367;52.202;5.996;2023-08-06T12:48:02;21.47;;;19.93;;
20415;SDS011;10367;52.202;5.996;2023-08-06T12:50:31;22.00;;;20.37;;
20415;SDS011;10367;52.202;5.996;2023-08-06T12:53:01;21.60;;;20.03;;
20415;SDS011;10367;52.202;5.996;2023-08-06T12:55:32;23.50;;;21.60;;
20415;SDS011;10367;52.202;5.996;2023-08-06T12:58:01;21.17;;;19.70;;
20415;SDS011;10367;52.202;5.996;2023-08-06T13:00:31;21.53;;;19.87;;
20415;SDS011;10367;52.202;5.996;2023-08-06T13:03:01;20.57;;;19.00;;
20415;SDS011;10367;52.202;5.996;2023-08-06T13:05:29;22.53;;;20.53;;
20415;SDS011;10367;52.202;5.996;2023-08-06T13:07:58;22.03;;;20.13;;
20415;SDS011;10367;52.202;5.996;2023-08-06T13:10:27;22.77;;;20.70;;
20415;SDS011;10367;52.202;5.996;2023-08-06T13:12:56;20.63;;;18.87;;
20415;SDS011;10367;52.202;5.996;2023-08-06T13:15:24;22.57;;;20.70;;
20415;SDS011;10367;52.202;5.996;2023-08-06T13:17:55;19.97;;;18.53;;
20415;SDS011;10367;52.202;5.996;2023-08-06T13:20:23;22.00;;;20.20;;
20415;SDS011;10367;52.202;5.996;2023-08-06T13:22:52;20.10;;;18.50;;
20415;SDS011;10367;52.202;5.996;2023-08-06T13:25:22;22.80;;;20.83;;
20415;SDS011;10367;52.202;5.996;2023-08-06T13:27:53;20.97;;;19.37;;
20415;SDS011;10367;52.202;5.996;2023-08-06T13:30:22;23.70;;;20.70;;
20415;SDS011;10367;52.202;5.996;2023-08-06T13:32:51;20.40;;;18.60;;
20415;SDS011;10367;52.202;5.996;2023-08-06T13:35:24;20.17;;;18.57;;
20415;SDS011;10367;52.202;5.996;2023-08-06T13:37:55;21.83;;;19.57;;
20415;SDS011;10367;52.202;5.996;2023-08-06T13:40:24;23.10;;;21.00;;
20415;SDS011;10367;52.202;5.996;2023-08-06T13:42:53;19.80;;;18.40;;
20415;SDS011;10367;52.202;5.996;2023-08-06T13:45:22;22.27;;;20.17;;
20415;SDS011;10367;52.202;5.996;2023-08-06T13:47:51;20.73;;;19.00;;
20415;SDS011;10367;52.202;5.996;2023-08-06T13:50:19;21.63;;;19.43;;
20415;SDS011;10367;52.202;5.996;2023-08-06T13:52:50;20.23;;;18.53;;
20415;SDS011;10367;52.202;5.996;2023-08-06T13:55:20;19.90;;;18.33;;
20415;SDS011;10367;52.202;5.996;2023-08-06T13:57:49;19.47;;;18.03;;
20415;SDS011;10367;52.202;5.996;2023-08-06T14:00:18;21.17;;;19.27;;
20415;SDS011;10367;52.202;5.996;2023-08-06T14:02:47;22.17;;;20.07;;
20415;SDS011;10367;52.202;5.996;2023-08-06T14:05:16;23.00;;;21.00;;
20415;SDS011;10367;52.202;5.996;2023-08-06T14:07:44;21.10;;;19.30;;
20415;SDS011;10367;52.202;5.996;2023-08-06T14:10:14;21.23;;;19.50;;
20415;SDS011;10367;52.202;5.996;2023-08-06T14:12:43;22.23;;;20.10;;
20415;SDS011;10367;52.202;5.996;2023-08-06T14:15:27;21.60;;;19.53;;
20415;SDS011;10367;52.202;5.996;2023-08-06T14:17:55;20.97;;;19.33;;
20415;SDS011;10367;52.202;5.996;2023-08-06T14:20:24;22.63;;;20.37;;
20415;SDS011;10367;52.202;5.996;2023-08-06T14:22:53;21.07;;;19.40;;
20415;SDS011;10367;52.202;5.996;2023-08-06T14:25:24;22.97;;;20.97;;
20415;SDS011;10367;52.202;5.996;2023-08-06T14:27:55;21.63;;;19.93;;
20415;SDS011;10367;52.202;5.996;2023-08-06T14:30:24;22.07;;;20.17;;
20415;SDS011;10367;52.202;5.996;2023-08-06T14:32:52;20.67;;;18.97;;
20415;SDS011;10367;52.202;5.996;2023-08-06T14:35:22;23.17;;;20.87;;
20415;SDS011;10367;52.202;5.996;2023-08-06T14:37:53;23.73;;;19.13;;
20415;SDS011;10367;52.202;5.996;2023-08-06T14:40:26;20.13;;;18.60;;